createdAt,value
2019-02-10T00:01:16.007Z,15.90
2019-02-10T00:03:44.876Z,17.40
2019-02-10T00:06:13.821Z,13.23
2019-02-10T00:08:42.640Z,15.20
2019-02-10T00:11:11.505Z,14.00
2019-02-10T00:13:40.407Z,17.23
2019-02-10T00:16:15.304Z,17.07
2019-02-10T00:18:44.206Z,16.23
2019-02-10T00:21:13.059Z,15.87
2019-02-10T00:23:41.946Z,19.30
2019-02-10T00:26:10.816Z,17.60
2019-02-10T00:28:39.706Z,20.87
2019-02-10T00:31:08.588Z,14.13
2019-02-10T00:33:37.488Z,16.67
2019-02-10T00:36:06.369Z,18.13
2019-02-10T00:38:35.288Z,17.07
2019-02-10T00:41:04.176Z,14.30
2019-02-10T00:43:33.064Z,15.77
2019-02-10T00:46:01.962Z,18.13
2019-02-10T00:48:30.831Z,19.00
2019-02-10T00:50:59.713Z,14.67
2019-02-10T00:53:28.612Z,14.97
2019-02-10T00:55:57.476Z,11.87
2019-02-10T00:58:26.397Z,21.10
2019-02-10T01:00:55.246Z,18.37
2019-02-10T01:03:24.119Z,13.33
2019-02-10T01:05:53.094Z,18.73
2019-02-10T01:08:21.980Z,18.70
2019-02-10T01:10:50.868Z,15.73
2019-02-10T01:13:19.758Z,12.27
2019-02-10T01:15:48.642Z,18.83
2019-02-10T01:18:17.538Z,20.70
2019-02-10T01:20:46.419Z,13.87
2019-02-10T01:23:15.335Z,16.60
2019-02-10T01:25:44.223Z,13.77
2019-02-10T01:28:13.122Z,14.87
2019-02-10T01:30:42.059Z,18.70
2019-02-10T01:33:10.950Z,20.33
2019-02-10T01:35:39.839Z,16.30
2019-02-10T01:38:08.707Z,15.80
2019-02-10T01:40:37.656Z,14.47
2019-02-10T01:43:06.542Z,17.60
2019-02-10T01:45:35.477Z,18.70
2019-02-10T01:48:04.370Z,16.90
2019-02-10T01:50:33.264Z,20.17
2019-02-10T01:53:02.104Z,23.23
2019-02-10T01:55:31.023Z,14.27
2019-02-10T01:57:59.937Z,13.27
2019-02-10T02:00:28.829Z,20.10
2019-02-10T02:02:57.716Z,14.90
2019-02-10T02:05:26.575Z,19.27
2019-02-10T02:07:55.476Z,18.77
2019-02-10T02:10:24.377Z,17.77
2019-02-10T02:12:53.253Z,19.77
2019-02-10T02:15:22.149Z,17.07
2019-02-10T02:17:51.017Z,19.07
2019-02-10T02:20:19.897Z,24.23
2019-02-10T02:22:48.797Z,21.73
2019-02-10T02:25:17.694Z,22.73
2019-02-10T02:27:46.559Z,16.40
2019-02-10T02:30:16.064Z,18.33
2019-02-10T02:32:44.946Z,12.60
2019-02-10T02:35:13.827Z,13.80
2019-02-10T02:37:42.718Z,14.60
2019-02-10T02:40:11.595Z,16.97
2019-02-10T02:42:40.508Z,16.47
2019-02-10T02:45:10.831Z,17.83
2019-02-10T02:47:39.707Z,21.03
2019-02-10T02:50:10.029Z,21.03
2019-02-10T02:52:39.100Z,22.25
2019-02-10T02:55:08.746Z,20.67
2019-02-10T02:57:37.677Z,24.03
2019-02-10T03:00:06.937Z,17.37
2019-02-10T03:02:35.860Z,16.27
2019-02-10T03:05:04.909Z,20.23
2019-02-10T03:07:33.808Z,22.40
2019-02-10T03:10:02.675Z,21.17
2019-02-10T03:12:31.564Z,22.30
2019-02-10T03:15:00.440Z,19.90
2019-02-10T03:17:29.327Z,19.23
2019-02-10T03:19:58.196Z,22.70
2019-02-10T03:22:27.090Z,16.83
2019-02-10T03:24:55.979Z,21.03
2019-02-10T03:27:24.882Z,24.77
2019-02-10T03:29:53.757Z,18.70
2019-02-10T03:32:22.615Z,18.37
2019-02-10T03:34:51.529Z,14.93
2019-02-10T03:37:26.806Z,19.03
2019-02-10T03:39:49.324Z,24.13
2019-02-10T03:42:18.229Z,21.57
2019-02-10T03:44:47.108Z,22.43
2019-02-10T03:47:15.972Z,24.00
2019-02-10T03:49:44.853Z,20.50
2019-02-10T03:52:13.724Z,27.33
2019-02-10T03:54:42.618Z,25.43
2019-02-10T03:57:11.525Z,25.17
2019-02-10T03:59:40.415Z,24.57
2019-02-10T04:02:09.295Z,21.37
2019-02-10T04:04:38.208Z,19.03
2019-02-10T04:07:07.121Z,26.75
2019-02-10T04:09:36.048Z,22.17
2019-02-10T04:12:04.944Z,20.93
2019-02-10T04:14:33.822Z,22.53
2019-02-10T04:17:02.723Z,19.07
2019-02-10T04:19:31.591Z,18.80
2019-02-10T04:22:00.453Z,20.93
2019-02-10T04:24:29.335Z,16.93
2019-02-10T04:26:58.186Z,27.67
2019-02-10T04:29:27.045Z,21.30
2019-02-10T04:31:55.930Z,12.97
2019-02-10T04:34:24.792Z,15.90
2019-02-10T04:36:53.696Z,21.70
2019-02-10T04:39:22.564Z,24.87
2019-02-10T04:41:51.448Z,15.77
2019-02-10T04:44:20.332Z,15.40
2019-02-10T04:46:49.195Z,15.27
2019-02-10T04:49:18.099Z,16.10
2019-02-10T04:51:46.967Z,16.33
2019-02-10T04:54:15.828Z,18.57
2019-02-10T04:56:44.757Z,16.47
2019-02-10T04:59:13.748Z,11.40
2019-02-10T05:01:42.603Z,11.57
2019-02-10T05:04:11.472Z,16.20
2019-02-10T05:06:40.350Z,11.97
2019-02-10T05:09:09.209Z,15.53
2019-02-10T05:11:38.094Z,14.33
2019-02-10T05:14:06.981Z,14.43
2019-02-10T05:16:35.915Z,12.23
2019-02-10T05:19:04.825Z,11.07
2019-02-10T05:21:33.706Z,11.53
2019-02-10T05:24:03.812Z,18.13
2019-02-10T05:26:31.466Z,12.00
2019-02-10T05:29:00.341Z,15.17
2019-02-10T05:31:29.204Z,19.45
2019-02-10T05:33:58.086Z,12.47
2019-02-10T05:36:26.965Z,14.63
2019-02-10T05:38:55.859Z,14.90
2019-02-10T05:41:24.729Z,10.83
2019-02-10T05:43:53.623Z,14.00
2019-02-10T05:46:22.513Z,11.07
2019-02-10T05:48:51.374Z,12.43
2019-02-10T05:51:20.282Z,10.73
2019-02-10T05:53:49.164Z,9.03
2019-02-10T05:56:18.024Z,8.30
2019-02-10T05:58:46.911Z,10.20
2019-02-10T06:01:52.265Z,9.30
2019-02-10T06:04:21.120Z,6.50
2019-02-10T06:06:50.008Z,9.03
2019-02-10T06:09:18.893Z,6.83
2019-02-10T06:11:47.757Z,6.07
2019-02-10T06:14:16.654Z,10.20
2019-02-10T06:16:45.539Z,6.17
2019-02-10T06:19:14.397Z,7.33
2019-02-10T06:21:43.362Z,9.13
2019-02-10T06:24:12.229Z,6.17
2019-02-10T06:26:41.098Z,10.27
2019-02-10T06:29:09.983Z,7.60
2019-02-10T06:31:38.949Z,8.40
2019-02-10T06:34:07.858Z,7.20
2019-02-10T06:36:36.731Z,7.30
2019-02-10T06:39:06.014Z,4.47
2019-02-10T06:41:34.909Z,8.33
2019-02-10T06:44:03.794Z,5.13
2019-02-10T06:46:32.660Z,8.47
2019-02-10T06:49:01.537Z,8.07
2019-02-10T06:51:30.422Z,7.87
2019-02-10T06:53:59.307Z,5.80
2019-02-10T06:56:28.204Z,5.80
2019-02-10T06:58:57.084Z,9.10
2019-02-10T07:01:54.155Z,3.87
2019-02-10T07:04:28.409Z,5.70
2019-02-10T07:06:57.268Z,6.10
2019-02-10T07:09:28.911Z,6.60
2019-02-10T07:11:57.806Z,5.00
2019-02-10T07:14:38.292Z,5.83
2019-02-10T07:17:57.898Z,4.70
2019-02-10T07:20:42.896Z,5.67
2019-02-10T07:24:07.988Z,4.77
2019-02-10T07:26:53.809Z,6.90
2019-02-10T07:29:56.398Z,5.80
2019-02-10T07:32:30.135Z,4.87
2019-02-10T07:35:30.723Z,5.20
2019-02-10T07:38:56.279Z,5.87
2019-02-10T07:42:06.663Z,4.70
2019-02-10T07:44:56.277Z,5.87
2019-02-10T07:48:15.715Z,5.03
2019-02-10T07:51:37.162Z,4.97
2019-02-10T07:54:33.290Z,5.93
2019-02-10T07:57:46.549Z,4.30
2019-02-10T08:01:03.130Z,6.23
2019-02-10T08:03:51.711Z,4.90
2019-02-10T08:06:41.363Z,4.80
2019-02-10T08:09:59.017Z,4.90
2019-02-10T08:12:56.076Z,6.40
2019-02-10T08:15:56.887Z,4.57
2019-02-10T08:19:05.342Z,5.07
2019-02-10T08:21:59.693Z,5.20
2019-02-10T08:24:52.165Z,6.00
2019-02-10T08:27:43.053Z,4.57
2019-02-10T08:31:08.906Z,6.47
2019-02-10T08:34:08.911Z,4.33
2019-02-10T08:37:04.213Z,7.03
2019-02-10T08:39:54.392Z,4.80
2019-02-10T08:42:32.427Z,4.50
2019-02-10T08:45:08.658Z,5.10
2019-02-10T08:48:22.210Z,5.30
2019-02-10T08:51:33.866Z,4.57
2019-02-10T08:54:02.809Z,7.15
2019-02-10T08:56:31.702Z,6.47
2019-02-10T08:59:00.644Z,7.10
2019-02-10T09:01:29.519Z,5.50
2019-02-10T09:03:58.380Z,4.47
2019-02-10T09:06:27.268Z,2.90
2019-02-10T09:09:02.437Z,2.40
2019-02-10T09:11:24.997Z,2.27
2019-02-10T09:13:53.874Z,2.60
2019-02-10T09:16:22.726Z,2.40
2019-02-10T09:18:51.611Z,2.20
2019-02-10T09:21:20.458Z,3.10
2019-02-10T09:23:49.318Z,3.33
2019-02-10T09:26:18.181Z,3.10
2019-02-10T09:28:47.061Z,2.83
2019-02-10T09:31:15.946Z,3.20
2019-02-10T09:33:44.835Z,3.63
2019-02-10T09:36:13.683Z,4.10
2019-02-10T09:38:42.566Z,4.20
2019-02-10T09:41:11.420Z,3.50
2019-02-10T09:43:40.331Z,3.50
2019-02-10T09:46:09.200Z,4.10
2019-02-10T09:48:38.304Z,3.57
2019-02-10T09:51:07.169Z,4.57
2019-02-10T09:53:36.258Z,3.80
2019-02-10T09:56:05.120Z,3.97
2019-02-10T09:58:33.994Z,4.00
2019-02-10T10:01:02.879Z,5.10
2019-02-10T10:03:31.754Z,5.40
2019-02-10T10:06:00.612Z,5.10
2019-02-10T10:08:29.481Z,6.53
2019-02-10T10:10:58.363Z,9.13
2019-02-10T10:13:27.207Z,7.57
2019-02-10T10:15:56.127Z,9.23
2019-02-10T10:18:24.985Z,8.07
2019-02-10T10:20:53.863Z,9.77
2019-02-10T10:23:22.735Z,9.70
2019-02-10T10:25:51.601Z,8.17
2019-02-10T10:28:20.469Z,6.20
2019-02-10T10:30:49.368Z,5.97
2019-02-10T10:33:18.258Z,6.63
2019-02-10T10:35:47.207Z,6.73
2019-02-10T10:38:16.044Z,6.53
2019-02-10T10:40:44.947Z,6.00
2019-02-10T10:43:13.835Z,6.03
2019-02-10T10:45:42.702Z,5.07
2019-02-10T10:48:11.583Z,5.40
2019-02-10T10:50:40.453Z,4.00
2019-02-10T10:53:09.297Z,4.40
2019-02-10T10:55:38.244Z,4.50
2019-02-10T10:58:07.125Z,4.93
2019-02-10T11:00:36.067Z,4.17
2019-02-10T11:03:04.961Z,4.20
2019-02-10T11:05:33.855Z,3.13
2019-02-10T11:08:02.723Z,3.03
2019-02-10T11:10:31.617Z,3.23
2019-02-10T11:13:00.485Z,3.20
2019-02-10T11:15:29.347Z,3.10
2019-02-10T11:17:58.200Z,4.40
2019-02-10T11:20:27.049Z,4.95
2019-02-10T11:22:55.920Z,4.73
2019-02-10T11:25:24.797Z,6.05
2019-02-10T11:27:53.651Z,3.60
2019-02-10T11:30:22.513Z,4.73
2019-02-10T11:32:51.384Z,4.33
2019-02-10T11:35:20.291Z,3.77
2019-02-10T11:37:49.157Z,3.70
2019-02-10T11:40:18.003Z,5.47
2019-02-10T11:42:46.880Z,4.50
2019-02-10T11:45:15.752Z,3.73
2019-02-10T11:47:44.629Z,5.10
2019-02-10T11:50:13.590Z,3.93
2019-02-10T11:52:42.450Z,3.30
2019-02-10T11:55:11.362Z,4.13
2019-02-10T11:57:40.349Z,3.13
2019-02-10T12:00:10.323Z,4.20
2019-02-10T12:02:39.329Z,4.67
2019-02-10T12:05:09.514Z,2.93
2019-02-10T12:07:38.554Z,4.27
2019-02-10T12:10:07.960Z,3.10
2019-02-10T12:12:37.143Z,2.23
2019-02-10T12:15:06.416Z,2.40
2019-02-10T12:17:35.325Z,2.50
2019-02-10T12:20:04.615Z,2.40
2019-02-10T12:22:33.526Z,3.20
2019-02-10T12:25:02.372Z,2.57
2019-02-10T12:27:31.221Z,2.30
2019-02-10T12:30:00.735Z,2.30
2019-02-10T12:32:28.958Z,2.17
2019-02-10T12:34:57.879Z,1.90
2019-02-10T12:37:32.339Z,2.07
2019-02-10T12:39:59.903Z,3.30
2019-02-10T12:42:24.448Z,3.73
2019-02-10T12:44:53.330Z,1.50
2019-02-10T12:47:22.197Z,2.00
2019-02-10T12:49:51.047Z,1.70
2019-02-10T12:52:19.941Z,1.63
2019-02-10T12:54:48.816Z,1.60
2019-02-10T12:57:17.696Z,1.60
2019-02-10T12:59:46.584Z,2.23
2019-02-10T13:02:15.441Z,1.60
2019-02-10T13:04:44.308Z,1.57
2019-02-10T13:07:13.152Z,1.37
2019-02-10T13:09:42.024Z,4.13
2019-02-10T13:12:10.876Z,2.30
2019-02-10T13:14:39.890Z,2.40
2019-02-10T13:17:08.748Z,3.43
2019-02-10T13:19:37.689Z,2.03
2019-02-10T13:22:06.518Z,1.73
2019-02-10T13:24:35.435Z,1.70
2019-02-10T13:27:04.284Z,2.00
2019-02-10T13:29:33.174Z,2.07
2019-02-10T13:32:02.042Z,3.40
2019-02-10T13:34:30.933Z,2.30
2019-02-10T13:36:59.870Z,2.03
2019-02-10T13:39:28.672Z,2.60
2019-02-10T13:41:56.508Z,3.73
2019-02-10T13:44:25.388Z,3.50
2019-02-10T13:46:54.246Z,3.80
2019-02-10T13:49:23.113Z,3.50
2019-02-10T13:51:51.967Z,3.67
2019-02-10T13:54:20.856Z,4.30
2019-02-10T13:56:49.747Z,4.17
2019-02-10T13:59:18.654Z,4.00
2019-02-10T14:01:47.548Z,4.53
2019-02-10T14:04:16.432Z,17.97
2019-02-10T14:06:45.325Z,3.97
2019-02-10T14:09:14.189Z,8.13
2019-02-10T14:11:43.070Z,5.17
2019-02-10T14:14:11.988Z,4.73
2019-02-10T14:16:40.951Z,4.60
2019-02-10T14:19:09.875Z,4.07
2019-02-10T14:21:39.044Z,4.43
2019-02-10T14:24:08.555Z,3.60
2019-02-10T14:26:38.324Z,3.57
2019-02-10T14:29:22.321Z,4.00
2019-02-10T14:31:52.317Z,3.30
2019-02-10T14:34:46.781Z,4.30
2019-02-10T14:37:24.035Z,5.78
2019-02-10T14:39:58.741Z,3.87
2019-02-10T14:42:27.806Z,3.73
2019-02-10T14:45:02.472Z,5.00
2019-02-10T14:47:49.437Z,4.57
2019-02-10T14:50:19.350Z,16.20
2019-02-10T14:52:46.428Z,3.53
2019-02-10T14:55:21.965Z,3.57
2019-02-10T14:57:56.102Z,4.43
2019-02-10T15:00:43.609Z,4.00
2019-02-10T15:03:38.094Z,3.60
2019-02-10T15:06:17.179Z,3.47
2019-02-10T15:08:48.049Z,2.87
2019-02-10T15:11:21.385Z,3.90
2019-02-10T15:13:50.405Z,2.90
2019-02-10T15:16:28.185Z,3.00
2019-02-10T15:18:59.867Z,3.77
2019-02-10T15:21:28.934Z,3.67
2019-02-10T15:24:00.865Z,3.87
2019-02-10T15:26:29.910Z,3.27
2019-02-10T15:29:18.397Z,5.03
2019-02-10T15:31:52.362Z,3.67
2019-02-10T15:34:23.332Z,4.80
2019-02-10T15:37:02.281Z,4.03
2019-02-10T15:39:34.314Z,3.83
2019-02-10T15:42:09.275Z,5.43
2019-02-10T15:44:32.359Z,6.43
2019-02-10T15:47:01.360Z,4.43
2019-02-10T15:49:30.377Z,7.17
2019-02-10T15:51:59.405Z,4.67
2019-02-10T15:54:28.488Z,4.80
2019-02-10T15:57:05.378Z,4.20
2019-02-10T15:59:38.922Z,3.50
2019-02-10T16:02:13.086Z,3.10
2019-02-10T16:04:42.888Z,2.33
2019-02-10T16:07:14.383Z,1.60
2019-02-10T16:09:45.638Z,2.20
2019-02-10T16:12:16.272Z,1.63
2019-02-10T16:14:51.560Z,0.93
2019-02-10T16:17:20.644Z,1.03
2019-02-10T16:20:09.413Z,1.10
2019-02-10T16:22:38.567Z,1.47
2019-02-10T16:25:13.057Z,1.23
2019-02-10T16:27:45.038Z,1.10
2019-02-10T16:30:16.486Z,0.67
2019-02-10T16:32:50.053Z,1.30
2019-02-10T16:35:32.257Z,2.17
2019-02-10T16:38:07.068Z,1.30
2019-02-10T16:40:40.867Z,1.20
2019-02-10T16:43:07.552Z,1.50
2019-02-10T16:45:36.430Z,1.50
2019-02-10T16:48:05.318Z,2.30
2019-02-10T16:50:34.173Z,1.77
2019-02-10T16:53:03.057Z,2.07
2019-02-10T16:55:31.938Z,2.20
2019-02-10T16:58:00.846Z,2.50
2019-02-10T17:00:29.711Z,2.60
2019-02-10T17:02:58.599Z,4.00
2019-02-10T17:05:27.479Z,2.63
2019-02-10T17:07:56.373Z,3.27
2019-02-10T17:10:25.249Z,2.97
2019-02-10T17:12:54.117Z,2.20
2019-02-10T17:15:22.985Z,1.75
2019-02-10T17:17:51.841Z,1.10
2019-02-10T17:20:20.698Z,1.00
2019-02-10T17:22:49.588Z,1.00
2019-02-10T17:25:18.487Z,0.83
2019-02-10T17:27:47.381Z,1.13
2019-02-10T17:30:16.270Z,0.90
2019-02-10T17:32:45.151Z,1.70
2019-02-10T17:35:14.056Z,2.93
2019-02-10T17:37:42.916Z,1.00
2019-02-10T17:40:15.740Z,0.50
2019-02-10T17:42:44.598Z,0.50
2019-02-10T17:45:13.463Z,0.60
2019-02-10T17:47:42.376Z,0.80
2019-02-10T17:50:11.688Z,1.00
2019-02-10T17:52:40.582Z,2.00
2019-02-10T17:55:09.490Z,1.63
2019-02-10T17:57:38.403Z,1.42
2019-02-10T18:00:07.864Z,1.33
2019-02-10T18:02:36.764Z,0.80
2019-02-10T18:05:06.263Z,1.10
2019-02-10T18:07:35.133Z,1.03
2019-02-10T18:10:04.072Z,0.70
2019-02-10T18:12:32.879Z,1.97
2019-02-10T18:15:26.689Z,1.10
2019-02-10T18:18:09.394Z,0.93
2019-02-10T18:20:50.372Z,0.90
2019-02-10T18:23:38.379Z,0.93
2019-02-10T18:26:26.765Z,1.07
2019-02-10T18:29:05.599Z,1.10
2019-02-10T18:31:53.574Z,1.30
2019-02-10T18:34:37.771Z,1.00
2019-02-10T18:37:25.746Z,1.57
2019-02-10T18:40:11.426Z,1.20
2019-02-10T18:43:02.403Z,1.43
2019-02-10T18:45:58.990Z,1.20
2019-02-10T18:48:45.623Z,1.20
2019-02-10T18:51:41.785Z,1.40
2019-02-10T18:54:38.679Z,1.40
2019-02-10T18:57:26.675Z,1.57
2019-02-10T19:00:13.615Z,1.97
2019-02-10T19:03:04.537Z,1.70
2019-02-10T19:05:42.596Z,2.03
2019-02-10T19:08:33.797Z,2.37
2019-02-10T19:11:24.370Z,2.00
2019-02-10T19:14:09.363Z,1.77
2019-02-10T19:16:56.033Z,2.10
2019-02-10T19:19:44.101Z,2.20
2019-02-10T19:22:37.650Z,1.80
2019-02-10T19:25:31.783Z,1.87
2019-02-10T19:28:22.558Z,1.30
2019-02-10T19:31:05.493Z,1.00
2019-02-10T19:33:53.465Z,0.80
2019-02-10T19:36:40.431Z,0.77
2019-02-10T19:39:18.330Z,0.77
2019-02-10T19:41:56.248Z,1.00
2019-02-10T19:44:47.312Z,0.97
2019-02-10T19:47:35.981Z,0.90
2019-02-10T19:50:14.718Z,0.80
2019-02-10T19:53:11.939Z,0.90
2019-02-10T19:55:48.490Z,0.80
2019-02-10T19:58:46.450Z,0.90
2019-02-10T20:01:32.934Z,0.87
2019-02-10T20:04:35.991Z,0.80
2019-02-10T20:07:26.524Z,0.93
2019-02-10T20:10:04.853Z,1.03
2019-02-10T20:12:45.195Z,1.03
2019-02-10T20:15:36.005Z,1.30
2019-02-10T20:18:17.082Z,1.13
2019-02-10T20:20:53.658Z,0.97
2019-02-10T20:23:47.575Z,1.73
2019-02-10T20:26:35.078Z,2.97
2019-02-10T20:29:21.702Z,2.67
2019-02-10T20:32:08.456Z,2.47
2019-02-10T20:34:47.823Z,5.27
2019-02-10T20:37:26.288Z,1.37
2019-02-10T20:40:01.254Z,2.13
2019-02-10T20:42:52.064Z,3.17
2019-02-10T20:45:35.912Z,3.10
2019-02-10T20:48:13.914Z,2.67
2019-02-10T20:50:59.168Z,3.63
2019-02-10T20:53:47.167Z,4.27
2019-02-10T20:56:43.662Z,3.00
2019-02-10T20:59:43.652Z,1.80
2019-02-10T21:02:37.651Z,1.20
2019-02-10T21:05:26.771Z,2.10
2019-02-10T21:08:10.889Z,4.63
2019-02-10T21:11:04.685Z,2.17
2019-02-10T21:13:44.918Z,2.30
2019-02-10T21:16:48.182Z,2.30
2019-02-10T21:19:36.180Z,2.63
2019-02-10T21:22:11.363Z,3.23
2019-02-10T21:25:05.032Z,5.45
2019-02-10T21:27:41.087Z,4.27
2019-02-10T21:30:38.404Z,6.60
2019-02-10T21:33:38.768Z,4.23
2019-02-10T21:36:25.216Z,4.60
2019-02-10T21:39:10.785Z,4.90
2019-02-10T21:41:51.970Z,4.70
2019-02-10T21:44:39.982Z,5.73
2019-02-10T21:47:30.910Z,3.47
2019-02-10T21:49:59.780Z,7.13
2019-02-10T21:52:28.670Z,6.27
2019-02-10T21:54:57.561Z,4.27
2019-02-10T21:57:26.504Z,6.23
2019-02-10T21:59:55.430Z,5.57
2019-02-10T22:02:24.344Z,5.00
2019-02-10T22:04:53.246Z,5.63
2019-02-10T22:07:22.154Z,5.30
2019-02-10T22:09:51.117Z,6.30
2019-02-10T22:12:19.964Z,6.83
2019-02-10T22:14:48.820Z,4.90
2019-02-10T22:17:17.719Z,5.40
2019-02-10T22:19:46.624Z,5.70
2019-02-10T22:22:15.586Z,6.53
2019-02-10T22:24:44.435Z,10.80
2019-02-10T22:27:13.339Z,4.33
2019-02-10T22:29:42.201Z,4.40
2019-02-10T22:32:11.085Z,4.83
2019-02-10T22:34:39.950Z,6.30
2019-02-10T22:37:08.863Z,9.50
2019-02-10T22:39:37.764Z,6.97
2019-02-10T22:42:06.724Z,7.43
2019-02-10T22:44:35.668Z,5.73
2019-02-10T22:47:04.600Z,6.77
2019-02-10T22:49:33.407Z,6.30
2019-02-10T22:52:02.283Z,7.50
2019-02-10T22:54:31.204Z,8.00
2019-02-10T22:57:00.070Z,9.27
2019-02-10T22:59:28.949Z,7.37
2019-02-10T23:01:57.829Z,9.80
2019-02-10T23:04:26.675Z,9.20
2019-02-10T23:06:55.552Z,7.03
2019-02-10T23:09:24.496Z,7.90
2019-02-10T23:11:53.392Z,13.80
2019-02-10T23:14:22.271Z,8.93
2019-02-10T23:16:51.120Z,10.90
2019-02-10T23:19:20.053Z,8.23
2019-02-10T23:21:48.925Z,9.50
2019-02-10T23:24:17.783Z,8.27
2019-02-10T23:26:46.633Z,9.33
2019-02-10T23:29:15.524Z,8.57
2019-02-10T23:31:44.390Z,11.77
2019-02-10T23:34:13.265Z,9.30
2019-02-10T23:36:42.122Z,10.97
2019-02-10T23:39:11.111Z,8.40
2019-02-10T23:41:39.962Z,11.00
2019-02-10T23:44:08.826Z,11.03
2019-02-10T23:46:37.727Z,5.00
2019-02-10T23:49:06.611Z,8.83
2019-02-10T23:51:35.505Z,9.73
2019-02-10T23:54:04.410Z,8.07
2019-02-10T23:56:33.343Z,8.43
2019-02-10T23:59:02.158Z,7.53
